sensor_id;sensor_type;location;lat;lon;timestamp;P1;durP1;ratioP1;P2;durP2;ratioP2
22184;SDS011;11258;52.516;13.318;2023-04-07T00:00:53;8.57;;;6.23;;
22184;SDS011;11258;52.516;13.318;2023-04-07T00:03:19;9.57;;;6.37;;
22184;SDS011;11258;52.516;13.318;2023-04-07T00:05:45;11.27;;;6.87;;
22184;SDS011;11258;52.516;13.318;2023-04-07T00:08:11;7.57;;;5.77;;
22184;SDS011;11258;52.516;13.318;2023-04-07T00:10:37;10.57;;;6.93;;
22184;SDS011;11258;52.516;13.318;2023-04-07T00:13:03;12.00;;;6.03;;
22184;SDS011;11258;52.516;13.318;2023-04-07T00:15:29;10.23;;;6.13;;
22184;SDS011;11258;52.516;13.318;2023-04-07T00:17:54;11.13;;;5.93;;
22184;SDS011;11258;52.516;13.318;2023-04-07T00:20:20;10.33;;;6.50;;
22184;SDS011;11258;52.516;13.318;2023-04-07T00:22:46;11.57;;;6.63;;
22184;SDS011;11258;52.516;13.318;2023-04-07T00:25:12;11.07;;;6.77;;
22184;SDS011;11258;52.516;13.318;2023-04-07T00:27:37;11.00;;;7.13;;
22184;SDS011;11258;52.516;13.318;2023-04-07T00:30:03;10.93;;;6.97;;
22184;SDS011;11258;52.516;13.318;2023-04-07T00:32:29;11.17;;;6.90;;
22184;SDS011;11258;52.516;13.318;2023-04-07T00:34:55;10.30;;;6.67;;
22184;SDS011;11258;52.516;13.318;2023-04-07T00:37:20;12.10;;;7.00;;
22184;SDS011;11258;52.516;13.318;2023-04-07T00:39:46;13.57;;;6.47;;
22184;SDS011;11258;52.516;13.318;2023-04-07T00:42:12;11.47;;;6.57;;
22184;SDS011;11258;52.516;13.318;2023-04-07T00:44:37;11.30;;;6.60;;
22184;SDS011;11258;52.516;13.318;2023-04-07T00:47:03;9.83;;;6.97;;
22184;SDS011;11258;52.516;13.318;2023-04-07T00:49:29;9.60;;;6.73;;
22184;SDS011;11258;52.516;13.318;2023-04-07T00:51:58;9.87;;;6.10;;
22184;SDS011;11258;52.516;13.318;2023-04-07T00:54:25;11.23;;;7.00;;
22184;SDS011;11258;52.516;13.318;2023-04-07T00:56:51;9.65;;;7.20;;
22184;SDS011;11258;52.516;13.318;2023-04-07T00:59:17;10.90;;;6.83;;
22184;SDS011;11258;52.516;13.318;2023-04-07T01:01:49;9.57;;;6.40;;
22184;SDS011;11258;52.516;13.318;2023-04-07T01:04:26;11.90;;;6.80;;
22184;SDS011;11258;52.516;13.318;2023-04-07T01:07:00;10.07;;;6.07;;
22184;SDS011;11258;52.516;13.318;2023-04-07T01:09:33;10.83;;;5.77;;
22184;SDS011;11258;52.516;13.318;2023-04-07T01:12:17;11.90;;;6.10;;
22184;SDS011;11258;52.516;13.318;2023-04-07T01:14:50;12.63;;;6.00;;
22184;SDS011;11258;52.516;13.318;2023-04-07T01:17:22;9.93;;;5.93;;
22184;SDS011;11258;52.516;13.318;2023-04-07T01:19:58;9.27;;;6.23;;
22184;SDS011;11258;52.516;13.318;2023-04-07T01:22:33;10.47;;;6.47;;
22184;SDS011;11258;52.516;13.318;2023-04-07T01:30:51;10.93;;;6.20;;
22184;SDS011;11258;52.516;13.318;2023-04-07T01:33:20;9.33;;;5.53;;
22184;SDS011;11258;52.516;13.318;2023-04-07T01:35:47;8.83;;;5.40;;
22184;SDS011;11258;52.516;13.318;2023-04-07T01:38:15;10.63;;;5.73;;
22184;SDS011;11258;52.516;13.318;2023-04-07T01:40:41;10.17;;;5.90;;
22184;SDS011;11258;52.516;13.318;2023-04-07T01:43:08;8.97;;;6.47;;
22184;SDS011;11258;52.516;13.318;2023-04-07T01:45:34;9.80;;;6.53;;
22184;SDS011;11258;52.516;13.318;2023-04-07T01:48:04;9.63;;;6.27;;
22184;SDS011;11258;52.516;13.318;2023-04-07T01:50:31;11.53;;;5.73;;
22184;SDS011;11258;52.516;13.318;2023-04-07T01:52:57;9.13;;;6.23;;
22184;SDS011;11258;52.516;13.318;2023-04-07T01:55:24;9.57;;;5.80;;
22184;SDS011;11258;52.516;13.318;2023-04-07T01:57:52;10.63;;;6.53;;
22184;SDS011;11258;52.516;13.318;2023-04-07T02:00:18;9.47;;;6.20;;
22184;SDS011;11258;52.516;13.318;2023-04-07T02:02:44;7.53;;;5.60;;
22184;SDS011;11258;52.516;13.318;2023-04-07T02:05:14;9.80;;;6.53;;
22184;SDS011;11258;52.516;13.318;2023-04-07T02:10:41;10.33;;;6.33;;
22184;SDS011;11258;52.516;13.318;2023-04-07T02:13:12;9.87;;;6.80;;
22184;SDS011;11258;52.516;13.318;2023-04-07T02:15:40;13.13;;;6.40;;
22184;SDS011;11258;52.516;13.318;2023-04-07T02:18:09;12.37;;;6.30;;
22184;SDS011;11258;52.516;13.318;2023-04-07T02:20:37;12.87;;;6.63;;
22184;SDS011;11258;52.516;13.318;2023-04-07T02:23:03;15.53;;;7.07;;
22184;SDS011;11258;52.516;13.318;2023-04-07T02:25:35;11.30;;;6.37;;
22184;SDS011;11258;52.516;13.318;2023-04-07T02:28:02;9.03;;;5.80;;
22184;SDS011;11258;52.516;13.318;2023-04-07T02:30:28;13.83;;;6.37;;
22184;SDS011;11258;52.516;13.318;2023-04-07T02:32:54;11.03;;;6.30;;
22184;SDS011;11258;52.516;13.318;2023-04-07T02:35:20;14.20;;;6.80;;
22184;SDS011;11258;52.516;13.318;2023-04-07T02:37:46;11.03;;;6.00;;
22184;SDS011;11258;52.516;13.318;2023-04-07T02:40:12;10.07;;;6.20;;
22184;SDS011;11258;52.516;13.318;2023-04-07T02:42:38;8.83;;;6.13;;
22184;SDS011;11258;52.516;13.318;2023-04-07T02:45:04;10.43;;;6.00;;
22184;SDS011;11258;52.516;13.318;2023-04-07T02:47:30;9.10;;;5.97;;
22184;SDS011;11258;52.516;13.318;2023-04-07T02:49:57;9.57;;;6.33;;
22184;SDS011;11258;52.516;13.318;2023-04-07T02:52:22;9.03;;;6.00;;
22184;SDS011;11258;52.516;13.318;2023-04-07T02:54:48;7.43;;;5.33;;
22184;SDS011;11258;52.516;13.318;2023-04-07T02:57:14;9.37;;;5.83;;
22184;SDS011;11258;52.516;13.318;2023-04-07T02:59:39;10.37;;;5.83;;
22184;SDS011;11258;52.516;13.318;2023-04-07T03:02:05;9.57;;;5.87;;
22184;SDS011;11258;52.516;13.318;2023-04-07T03:04:31;11.27;;;6.57;;
22184;SDS011;11258;52.516;13.318;2023-04-07T03:06:57;10.73;;;6.03;;
22184;SDS011;11258;52.516;13.318;2023-04-07T03:09:22;10.03;;;6.10;;
22184;SDS011;11258;52.516;13.318;2023-04-07T03:11:48;10.00;;;6.20;;
22184;SDS011;11258;52.516;13.318;2023-04-07T03:14:14;9.00;;;5.97;;
22184;SDS011;11258;52.516;13.318;2023-04-07T03:16:40;11.50;;;6.30;;
22184;SDS011;11258;52.516;13.318;2023-04-07T03:19:06;14.17;;;6.90;;
22184;SDS011;11258;52.516;13.318;2023-04-07T03:21:32;10.90;;;6.37;;
22184;SDS011;11258;52.516;13.318;2023-04-07T03:23:59;11.47;;;6.10;;
22184;SDS011;11258;52.516;13.318;2023-04-07T03:26:24;11.40;;;6.57;;
22184;SDS011;11258;52.516;13.318;2023-04-07T03:28:50;9.07;;;6.33;;
22184;SDS011;11258;52.516;13.318;2023-04-07T03:31:15;12.67;;;6.10;;
22184;SDS011;11258;52.516;13.318;2023-04-07T03:33:41;10.13;;;6.53;;
22184;SDS011;11258;52.516;13.318;2023-04-07T03:36:06;8.40;;;5.90;;
22184;SDS011;11258;52.516;13.318;2023-04-07T03:38:32;11.47;;;7.40;;
22184;SDS011;11258;52.516;13.318;2023-04-07T03:40:58;9.87;;;6.37;;
22184;SDS011;11258;52.516;13.318;2023-04-07T03:43:23;10.43;;;6.33;;
22184;SDS011;11258;52.516;13.318;2023-04-07T03:45:49;10.00;;;6.47;;
22184;SDS011;11258;52.516;13.318;2023-04-07T03:48:17;11.23;;;6.70;;
22184;SDS011;11258;52.516;13.318;2023-04-07T03:50:42;11.93;;;6.63;;
22184;SDS011;11258;52.516;13.318;2023-04-07T03:53:09;12.30;;;6.67;;
22184;SDS011;11258;52.516;13.318;2023-04-07T03:55:35;11.07;;;7.23;;
22184;SDS011;11258;52.516;13.318;2023-04-07T03:58:01;13.27;;;7.00;;
22184;SDS011;11258;52.516;13.318;2023-04-07T04:00:27;10.87;;;8.13;;
22184;SDS011;11258;52.516;13.318;2023-04-07T04:02:52;11.47;;;6.90;;
22184;SDS011;11258;52.516;13.318;2023-04-07T04:05:18;12.17;;;8.30;;
22184;SDS011;11258;52.516;13.318;2023-04-07T04:07:44;10.13;;;7.20;;
22184;SDS011;11258;52.516;13.318;2023-04-07T04:10:09;12.37;;;7.67;;
22184;SDS011;11258;52.516;13.318;2023-04-07T04:12:35;9.50;;;7.37;;
22184;SDS011;11258;52.516;13.318;2023-04-07T04:15:01;12.67;;;8.03;;
22184;SDS011;11258;52.516;13.318;2023-04-07T04:17:26;10.30;;;7.83;;
22184;SDS011;11258;52.516;13.318;2023-04-07T04:19:52;12.30;;;8.37;;
22184;SDS011;11258;52.516;13.318;2023-04-07T04:22:19;14.47;;;8.80;;
22184;SDS011;11258;52.516;13.318;2023-04-07T04:24:44;13.57;;;8.87;;
22184;SDS011;11258;52.516;13.318;2023-04-07T04:27:10;11.63;;;7.87;;
22184;SDS011;11258;52.516;13.318;2023-04-07T04:29:35;14.13;;;8.40;;
22184;SDS011;11258;52.516;13.318;2023-04-07T04:32:01;13.20;;;8.57;;
22184;SDS011;11258;52.516;13.318;2023-04-07T04:34:27;15.83;;;8.53;;
22184;SDS011;11258;52.516;13.318;2023-04-07T04:36:52;14.43;;;8.63;;
22184;SDS011;11258;52.516;13.318;2023-04-07T04:39:18;12.00;;;8.43;;
22184;SDS011;11258;52.516;13.318;2023-04-07T04:41:44;15.27;;;8.70;;
22184;SDS011;11258;52.516;13.318;2023-04-07T04:44:10;11.87;;;8.00;;
22184;SDS011;11258;52.516;13.318;2023-04-07T04:46:36;13.97;;;8.70;;
22184;SDS011;11258;52.516;13.318;2023-04-07T04:49:02;12.90;;;8.87;;
22184;SDS011;11258;52.516;13.318;2023-04-07T04:51:27;13.57;;;8.50;;
22184;SDS011;11258;52.516;13.318;2023-04-07T04:53:53;15.10;;;8.00;;
22184;SDS011;11258;52.516;13.318;2023-04-07T04:56:19;13.67;;;8.30;;
22184;SDS011;11258;52.516;13.318;2023-04-07T04:58:45;10.70;;;6.90;;
22184;SDS011;11258;52.516;13.318;2023-04-07T05:01:11;12.37;;;7.73;;
22184;SDS011;11258;52.516;13.318;2023-04-07T05:03:37;13.80;;;7.40;;
22184;SDS011;11258;52.516;13.318;2023-04-07T05:06:03;10.37;;;7.30;;
22184;SDS011;11258;52.516;13.318;2023-04-07T05:08:29;10.97;;;7.13;;
22184;SDS011;11258;52.516;13.318;2023-04-07T05:10:54;11.00;;;7.73;;
22184;SDS011;11258;52.516;13.318;2023-04-07T05:13:21;17.77;;;8.63;;
22184;SDS011;11258;52.516;13.318;2023-04-07T05:15:47;10.90;;;6.97;;
22184;SDS011;11258;52.516;13.318;2023-04-07T05:18:12;9.30;;;6.93;;
22184;SDS011;11258;52.516;13.318;2023-04-07T05:20:38;10.17;;;7.17;;
22184;SDS011;11258;52.516;13.318;2023-04-07T05:23:04;10.33;;;7.20;;
22184;SDS011;11258;52.516;13.318;2023-04-07T05:25:29;9.40;;;6.87;;
22184;SDS011;11258;52.516;13.318;2023-04-07T05:27:56;11.77;;;7.43;;
22184;SDS011;11258;52.516;13.318;2023-04-07T05:30:22;9.97;;;7.23;;
22184;SDS011;11258;52.516;13.318;2023-04-07T05:32:48;12.77;;;7.13;;
22184;SDS011;11258;52.516;13.318;2023-04-07T05:35:13;13.13;;;7.27;;
22184;SDS011;11258;52.516;13.318;2023-04-07T05:37:39;11.10;;;7.40;;
22184;SDS011;11258;52.516;13.318;2023-04-07T05:40:06;12.20;;;7.80;;
22184;SDS011;11258;52.516;13.318;2023-04-07T05:42:31;11.47;;;7.03;;
22184;SDS011;11258;52.516;13.318;2023-04-07T05:44:57;11.43;;;7.47;;
22184;SDS011;11258;52.516;13.318;2023-04-07T05:47:23;11.07;;;7.40;;
22184;SDS011;11258;52.516;13.318;2023-04-07T05:49:49;11.10;;;7.70;;
22184;SDS011;11258;52.516;13.318;2023-04-07T05:52:14;11.33;;;7.50;;
22184;SDS011;11258;52.516;13.318;2023-04-07T05:54:40;11.53;;;7.20;;
22184;SDS011;11258;52.516;13.318;2023-04-07T05:57:06;10.67;;;7.33;;
22184;SDS011;11258;52.516;13.318;2023-04-07T05:59:33;8.87;;;7.10;;
22184;SDS011;11258;52.516;13.318;2023-04-07T06:01:58;10.47;;;7.37;;
22184;SDS011;11258;52.516;13.318;2023-04-07T06:04:24;10.90;;;7.30;;
22184;SDS011;11258;52.516;13.318;2023-04-07T06:06:50;11.47;;;7.27;;
22184;SDS011;11258;52.516;13.318;2023-04-07T06:09:19;12.67;;;7.50;;
22184;SDS011;11258;52.516;13.318;2023-04-07T06:11:45;15.03;;;7.57;;
22184;SDS011;11258;52.516;13.318;2023-04-07T06:14:11;12.40;;;7.57;;
22184;SDS011;11258;52.516;13.318;2023-04-07T06:16:37;10.50;;;7.33;;
22184;SDS011;11258;52.516;13.318;2023-04-07T06:19:03;12.00;;;7.17;;
22184;SDS011;11258;52.516;13.318;2023-04-07T06:21:31;14.17;;;7.90;;
22184;SDS011;11258;52.516;13.318;2023-04-07T06:23:57;10.87;;;7.20;;
22184;SDS011;11258;52.516;13.318;2023-04-07T06:26:23;10.50;;;7.27;;
22184;SDS011;11258;52.516;13.318;2023-04-07T06:28:49;12.50;;;7.80;;
22184;SDS011;11258;52.516;13.318;2023-04-07T06:31:16;12.77;;;7.27;;
22184;SDS011;11258;52.516;13.318;2023-04-07T06:33:42;14.30;;;8.20;;
22184;SDS011;11258;52.516;13.318;2023-04-07T06:36:08;11.27;;;7.37;;
22184;SDS011;11258;52.516;13.318;2023-04-07T06:38:34;11.43;;;7.70;;
22184;SDS011;11258;52.516;13.318;2023-04-07T06:41:00;12.97;;;8.00;;
22184;SDS011;11258;52.516;13.318;2023-04-07T06:43:26;10.07;;;7.40;;
22184;SDS011;11258;52.516;13.318;2023-04-07T06:45:51;10.63;;;8.10;;
22184;SDS011;11258;52.516;13.318;2023-04-07T06:48:17;16.30;;;9.03;;
22184;SDS011;11258;52.516;13.318;2023-04-07T06:50:46;13.77;;;8.17;;
22184;SDS011;11258;52.516;13.318;2023-04-07T06:53:13;13.10;;;8.43;;
22184;SDS011;11258;52.516;13.318;2023-04-07T06:55:39;11.80;;;7.80;;
22184;SDS011;11258;52.516;13.318;2023-04-07T06:58:05;11.97;;;8.27;;
22184;SDS011;11258;52.516;13.318;2023-04-07T07:00:31;12.83;;;8.57;;
22184;SDS011;11258;52.516;13.318;2023-04-07T07:02:57;12.57;;;8.70;;
22184;SDS011;11258;52.516;13.318;2023-04-07T07:05:22;13.97;;;7.83;;
22184;SDS011;11258;52.516;13.318;2023-04-07T07:07:48;12.70;;;8.50;;
22184;SDS011;11258;52.516;13.318;2023-04-07T07:10:15;11.13;;;8.20;;
22184;SDS011;11258;52.516;13.318;2023-04-07T07:12:40;12.43;;;8.70;;
22184;SDS011;11258;52.516;13.318;2023-04-07T07:15:06;10.40;;;7.67;;
22184;SDS011;11258;52.516;13.318;2023-04-07T07:17:32;14.90;;;8.17;;
22184;SDS011;11258;52.516;13.318;2023-04-07T07:19:58;14.50;;;8.63;;
22184;SDS011;11258;52.516;13.318;2023-04-07T07:22:24;15.73;;;9.20;;
22184;SDS011;11258;52.516;13.318;2023-04-07T07:24:50;13.13;;;8.30;;
22184;SDS011;11258;52.516;13.318;2023-04-07T07:27:15;12.60;;;8.57;;
22184;SDS011;11258;52.516;13.318;2023-04-07T07:29:41;13.13;;;8.40;;
22184;SDS011;11258;52.516;13.318;2023-04-07T07:32:07;15.37;;;8.20;;
22184;SDS011;11258;52.516;13.318;2023-04-07T07:34:32;12.77;;;7.67;;
22184;SDS011;11258;52.516;13.318;2023-04-07T07:36:58;13.07;;;7.73;;
22184;SDS011;11258;52.516;13.318;2023-04-07T07:39:24;14.70;;;8.43;;
22184;SDS011;11258;52.516;13.318;2023-04-07T07:41:50;10.53;;;7.50;;
22184;SDS011;11258;52.516;13.318;2023-04-07T07:44:16;14.73;;;8.60;;
22184;SDS011;11258;52.516;13.318;2023-04-07T07:46:44;12.57;;;7.00;;
22184;SDS011;11258;52.516;13.318;2023-04-07T07:49:10;12.10;;;7.40;;
22184;SDS011;11258;52.516;13.318;2023-04-07T07:51:35;10.67;;;6.90;;
22184;SDS011;11258;52.516;13.318;2023-04-07T07:54:01;8.77;;;6.50;;
22184;SDS011;11258;52.516;13.318;2023-04-07T07:56:27;49.70;;;27.80;;
22184;SDS011;11258;52.516;13.318;2023-04-07T07:58:53;10.90;;;6.80;;
22184;SDS011;11258;52.516;13.318;2023-04-07T08:01:18;11.30;;;6.63;;
22184;SDS011;11258;52.516;13.318;2023-04-07T08:03:44;9.67;;;5.70;;
22184;SDS011;11258;52.516;13.318;2023-04-07T08:06:10;9.13;;;5.20;;
22184;SDS011;11258;52.516;13.318;2023-04-07T08:08:37;9.97;;;5.63;;
22184;SDS011;11258;52.516;13.318;2023-04-07T08:11:02;8.60;;;5.00;;
22184;SDS011;11258;52.516;13.318;2023-04-07T08:13:28;8.27;;;4.73;;
22184;SDS011;11258;52.516;13.318;2023-04-07T08:15:53;6.63;;;5.00;;
22184;SDS011;11258;52.516;13.318;2023-04-07T08:18:19;12.17;;;5.70;;
22184;SDS011;11258;52.516;13.318;2023-04-07T08:20:45;8.43;;;5.43;;
22184;SDS011;11258;52.516;13.318;2023-04-07T08:23:11;9.77;;;5.60;;
22184;SDS011;11258;52.516;13.318;2023-04-07T08:25:36;10.83;;;5.63;;
22184;SDS011;11258;52.516;13.318;2023-04-07T08:28:04;10.20;;;5.33;;
22184;SDS011;11258;52.516;13.318;2023-04-07T08:30:30;9.27;;;5.47;;
22184;SDS011;11258;52.516;13.318;2023-04-07T08:32:56;7.60;;;5.00;;
22184;SDS011;11258;52.516;13.318;2023-04-07T08:35:21;8.93;;;4.33;;
22184;SDS011;11258;52.516;13.318;2023-04-07T08:37:47;7.70;;;4.90;;
22184;SDS011;11258;52.516;13.318;2023-04-07T08:40:13;8.10;;;4.47;;
22184;SDS011;11258;52.516;13.318;2023-04-07T08:42:40;5.77;;;3.50;;
22184;SDS011;11258;52.516;13.318;2023-04-07T08:45:08;6.00;;;3.90;;
22184;SDS011;11258;52.516;13.318;2023-04-07T08:47:34;8.20;;;4.10;;
22184;SDS011;11258;52.516;13.318;2023-04-07T08:50:08;7.00;;;3.90;;
22184;SDS011;11258;52.516;13.318;2023-04-07T08:52:45;8.07;;;4.90;;
22184;SDS011;11258;52.516;13.318;2023-04-07T08:55:20;10.40;;;6.17;;
22184;SDS011;11258;52.516;13.318;2023-04-07T08:57:46;6.43;;;4.47;;
22184;SDS011;11258;52.516;13.318;2023-04-07T09:00:12;5.00;;;4.07;;
22184;SDS011;11258;52.516;13.318;2023-04-07T09:02:39;6.60;;;4.70;;
22184;SDS011;11258;52.516;13.318;2023-04-07T09:05:07;6.93;;;4.17;;
22184;SDS011;11258;52.516;13.318;2023-04-07T09:07:34;12.47;;;4.67;;
22184;SDS011;11258;52.516;13.318;2023-04-07T09:10:00;7.37;;;4.47;;
22184;SDS011;11258;52.516;13.318;2023-04-07T09:12:27;7.83;;;4.30;;
22184;SDS011;11258;52.516;13.318;2023-04-07T09:14:53;6.97;;;4.07;;
22184;SDS011;11258;52.516;13.318;2023-04-07T09:17:19;5.97;;;3.07;;
22184;SDS011;11258;52.516;13.318;2023-04-07T09:19:45;5.97;;;2.83;;
22184;SDS011;11258;52.516;13.318;2023-04-07T09:22:11;6.43;;;3.33;;
22184;SDS011;11258;52.516;13.318;2023-04-07T09:24:38;6.13;;;3.27;;
22184;SDS011;11258;52.516;13.318;2023-04-07T09:27:09;5.23;;;2.90;;
22184;SDS011;11258;52.516;13.318;2023-04-07T09:29:35;5.03;;;3.13;;
22184;SDS011;11258;52.516;13.318;2023-04-07T09:32:01;6.70;;;3.27;;
22184;SDS011;11258;52.516;13.318;2023-04-07T09:34:32;7.10;;;3.77;;
22184;SDS011;11258;52.516;13.318;2023-04-07T09:37:01;6.37;;;3.50;;
22184;SDS011;11258;52.516;13.318;2023-04-07T09:39:28;6.47;;;4.03;;
22184;SDS011;11258;52.516;13.318;2023-04-07T09:41:54;7.30;;;3.73;;
22184;SDS011;11258;52.516;13.318;2023-04-07T09:44:22;7.00;;;3.70;;
22184;SDS011;11258;52.516;13.318;2023-04-07T09:49:14;6.37;;;3.23;;
22184;SDS011;11258;52.516;13.318;2023-04-07T09:51:51;4.77;;;3.43;;
22184;SDS011;11258;52.516;13.318;2023-04-07T09:54:30;5.17;;;3.33;;
22184;SDS011;11258;52.516;13.318;2023-04-07T09:56:57;5.53;;;3.70;;
22184;SDS011;11258;52.516;13.318;2023-04-07T09:59:25;7.50;;;3.67;;
22184;SDS011;11258;52.516;13.318;2023-04-07T10:01:52;6.33;;;3.57;;
22184;SDS011;11258;52.516;13.318;2023-04-07T10:04:19;6.87;;;3.63;;
22184;SDS011;11258;52.516;13.318;2023-04-07T10:06:45;5.53;;;3.53;;
22184;SDS011;11258;52.516;13.318;2023-04-07T10:09:11;6.53;;;3.87;;
22184;SDS011;11258;52.516;13.318;2023-04-07T10:11:38;4.30;;;3.00;;
22184;SDS011;11258;52.516;13.318;2023-04-07T10:14:06;6.47;;;3.60;;
22184;SDS011;11258;52.516;13.318;2023-04-07T10:16:34;4.63;;;3.27;;
22184;SDS011;11258;52.516;13.318;2023-04-07T10:19:01;5.57;;;3.57;;
22184;SDS011;11258;52.516;13.318;2023-04-07T10:21:27;5.97;;;3.20;;
22184;SDS011;11258;52.516;13.318;2023-04-07T10:23:57;4.37;;;2.47;;
22184;SDS011;11258;52.516;13.318;2023-04-07T10:26:33;4.97;;;2.90;;
22184;SDS011;11258;52.516;13.318;2023-04-07T10:29:05;5.77;;;2.63;;
22184;SDS011;11258;52.516;13.318;2023-04-07T10:31:34;7.27;;;2.90;;
22184;SDS011;11258;52.516;13.318;2023-04-07T10:34:01;3.77;;;2.53;;
22184;SDS011;11258;52.516;13.318;2023-04-07T10:36:27;5.30;;;2.67;;
22184;SDS011;11258;52.516;13.318;2023-04-07T10:44:06;4.40;;;2.70;;
22184;SDS011;11258;52.516;13.318;2023-04-07T10:49:28;2.93;;;2.20;;
22184;SDS011;11258;52.516;13.318;2023-04-07T10:54:39;4.40;;;3.03;;
22184;SDS011;11258;52.516;13.318;2023-04-07T10:59:36;3.63;;;2.83;;
22184;SDS011;11258;52.516;13.318;2023-04-07T11:04:38;4.90;;;2.90;;
22184;SDS011;11258;52.516;13.318;2023-04-07T11:07:05;3.30;;;2.20;;
22184;SDS011;11258;52.516;13.318;2023-04-07T11:09:31;3.90;;;2.83;;
22184;SDS011;11258;52.516;13.318;2023-04-07T11:11:56;6.93;;;3.77;;
22184;SDS011;11258;52.516;13.318;2023-04-07T11:16:51;5.87;;;3.17;;
22184;SDS011;11258;52.516;13.318;2023-04-07T11:19:17;6.07;;;3.47;;
22184;SDS011;11258;52.516;13.318;2023-04-07T11:21:43;4.93;;;3.10;;
22184;SDS011;11258;52.516;13.318;2023-04-07T11:24:08;4.73;;;3.50;;
22184;SDS011;11258;52.516;13.318;2023-04-07T11:26:38;4.30;;;3.27;;
22184;SDS011;11258;52.516;13.318;2023-04-07T11:29:05;7.13;;;3.43;;
22184;SDS011;11258;52.516;13.318;2023-04-07T11:31:32;5.97;;;3.43;;
22184;SDS011;11258;52.516;13.318;2023-04-07T11:33:58;7.77;;;3.63;;
22184;SDS011;11258;52.516;13.318;2023-04-07T11:36:47;5.90;;;3.80;;
22184;SDS011;11258;52.516;13.318;2023-04-07T11:39:18;8.67;;;4.60;;
22184;SDS011;11258;52.516;13.318;2023-04-07T11:41:46;5.47;;;4.03;;
22184;SDS011;11258;52.516;13.318;2023-04-07T11:44:12;9.73;;;4.73;;
22184;SDS011;11258;52.516;13.318;2023-04-07T11:46:51;6.63;;;4.30;;
22184;SDS011;11258;52.516;13.318;2023-04-07T11:49:21;7.63;;;5.07;;
22184;SDS011;11258;52.516;13.318;2023-04-07T11:51:48;8.90;;;5.43;;
22184;SDS011;11258;52.516;13.318;2023-04-07T11:54:21;8.53;;;5.03;;
22184;SDS011;11258;52.516;13.318;2023-04-07T11:56:46;6.43;;;4.80;;
22184;SDS011;11258;52.516;13.318;2023-04-07T11:59:19;5.80;;;4.07;;
22184;SDS011;11258;52.516;13.318;2023-04-07T12:01:47;4.73;;;4.10;;
22184;SDS011;11258;52.516;13.318;2023-04-07T12:04:14;4.87;;;3.90;;
22184;SDS011;11258;52.516;13.318;2023-04-07T12:06:41;8.33;;;4.70;;
22184;SDS011;11258;52.516;13.318;2023-04-07T12:09:07;7.03;;;4.40;;
22184;SDS011;11258;52.516;13.318;2023-04-07T12:11:49;7.53;;;4.47;;
22184;SDS011;11258;52.516;13.318;2023-04-07T12:14:15;7.37;;;5.10;;
22184;SDS011;11258;52.516;13.318;2023-04-07T12:16:40;6.80;;;4.20;;
22184;SDS011;11258;52.516;13.318;2023-04-07T12:19:06;6.60;;;4.70;;
22184;SDS011;11258;52.516;13.318;2023-04-07T12:21:32;9.70;;;5.43;;
22184;SDS011;11258;52.516;13.318;2023-04-07T12:23:58;7.57;;;5.80;;
22184;SDS011;11258;52.516;13.318;2023-04-07T12:26:23;6.70;;;4.63;;
22184;SDS011;11258;52.516;13.318;2023-04-07T12:28:49;6.40;;;3.87;;
22184;SDS011;11258;52.516;13.318;2023-04-07T12:31:15;7.27;;;4.63;;
22184;SDS011;11258;52.516;13.318;2023-04-07T12:33:41;4.97;;;3.97;;
22184;SDS011;11258;52.516;13.318;2023-04-07T12:36:07;8.33;;;4.40;;
22184;SDS011;11258;52.516;13.318;2023-04-07T12:38:32;6.77;;;4.23;;
22184;SDS011;11258;52.516;13.318;2023-04-07T12:40:58;7.53;;;4.83;;
22184;SDS011;11258;52.516;13.318;2023-04-07T12:43:28;5.73;;;4.17;;
22184;SDS011;11258;52.516;13.318;2023-04-07T12:45:54;6.80;;;4.50;;
22184;SDS011;11258;52.516;13.318;2023-04-07T12:48:20;6.90;;;4.40;;
22184;SDS011;11258;52.516;13.318;2023-04-07T12:50:46;5.13;;;3.33;;
22184;SDS011;11258;52.516;13.318;2023-04-07T12:53:11;5.37;;;3.77;;
22184;SDS011;11258;52.516;13.318;2023-04-07T12:55:37;4.67;;;3.43;;
22184;SDS011;11258;52.516;13.318;2023-04-07T12:58:03;4.17;;;3.13;;
22184;SDS011;11258;52.516;13.318;2023-04-07T13:00:28;4.47;;;3.43;;
22184;SDS011;11258;52.516;13.318;2023-04-07T13:02:54;5.73;;;3.27;;
22184;SDS011;11258;52.516;13.318;2023-04-07T13:05:20;5.10;;;3.30;;
22184;SDS011;11258;52.516;13.318;2023-04-07T13:07:46;4.00;;;3.13;;
22184;SDS011;11258;52.516;13.318;2023-04-07T13:10:11;4.83;;;3.47;;
22184;SDS011;11258;52.516;13.318;2023-04-07T13:12:37;4.07;;;2.93;;
22184;SDS011;11258;52.516;13.318;2023-04-07T13:15:04;4.60;;;3.10;;
22184;SDS011;11258;52.516;13.318;2023-04-07T13:17:30;3.40;;;2.70;;
22184;SDS011;11258;52.516;13.318;2023-04-07T13:19:56;3.53;;;2.53;;
22184;SDS011;11258;52.516;13.318;2023-04-07T13:22:22;4.23;;;2.97;;
22184;SDS011;11258;52.516;13.318;2023-04-07T13:24:48;6.77;;;3.53;;
22184;SDS011;11258;52.516;13.318;2023-04-07T13:27:13;3.93;;;3.10;;
22184;SDS011;11258;52.516;13.318;2023-04-07T13:29:39;3.97;;;2.90;;
22184;SDS011;11258;52.516;13.318;2023-04-07T13:32:09;5.37;;;3.30;;
22184;SDS011;11258;52.516;13.318;2023-04-07T13:34:37;4.93;;;2.97;;
22184;SDS011;11258;52.516;13.318;2023-04-07T13:37:03;3.67;;;2.90;;
22184;SDS011;11258;52.516;13.318;2023-04-07T13:39:29;4.53;;;3.03;;
22184;SDS011;11258;52.516;13.318;2023-04-07T13:41:56;4.50;;;3.00;;
22184;SDS011;11258;52.516;13.318;2023-04-07T13:44:25;5.10;;;3.30;;
22184;SDS011;11258;52.516;13.318;2023-04-07T13:46:52;4.97;;;3.57;;
22184;SDS011;11258;52.516;13.318;2023-04-07T13:49:19;3.83;;;2.73;;
22184;SDS011;11258;52.516;13.318;2023-04-07T13:51:45;4.90;;;3.47;;
22184;SDS011;11258;52.516;13.318;2023-04-07T13:54:11;4.53;;;3.50;;
22184;SDS011;11258;52.516;13.318;2023-04-07T13:56:36;5.00;;;3.43;;
22184;SDS011;11258;52.516;13.318;2023-04-07T13:59:05;4.73;;;3.80;;
22184;SDS011;11258;52.516;13.318;2023-04-07T14:01:32;6.30;;;3.30;;
22184;SDS011;11258;52.516;13.318;2023-04-07T14:03:59;4.90;;;3.60;;
22184;SDS011;11258;52.516;13.318;2023-04-07T14:06:26;6.20;;;3.33;;
22184;SDS011;11258;52.516;13.318;2023-04-07T14:08:52;5.33;;;3.60;;
22184;SDS011;11258;52.516;13.318;2023-04-07T14:11:18;7.00;;;3.57;;
22184;SDS011;11258;52.516;13.318;2023-04-07T14:13:44;5.23;;;4.00;;
22184;SDS011;11258;52.516;13.318;2023-04-07T14:16:10;6.43;;;3.20;;
22184;SDS011;11258;52.516;13.318;2023-04-07T14:18:36;3.30;;;3.00;;
22184;SDS011;11258;52.516;13.318;2023-04-07T14:21:02;6.07;;;3.67;;
22184;SDS011;11258;52.516;13.318;2023-04-07T14:23:29;5.43;;;3.67;;
22184;SDS011;11258;52.516;13.318;2023-04-07T14:25:56;5.60;;;4.07;;
22184;SDS011;11258;52.516;13.318;2023-04-07T14:28:22;3.87;;;3.27;;
22184;SDS011;11258;52.516;13.318;2023-04-07T14:30:48;4.63;;;3.57;;
22184;SDS011;11258;52.516;13.318;2023-04-07T14:33:13;5.07;;;2.97;;
22184;SDS011;11258;52.516;13.318;2023-04-07T14:35:41;5.23;;;3.70;;
22184;SDS011;11258;52.516;13.318;2023-04-07T14:38:07;5.70;;;3.17;;
22184;SDS011;11258;52.516;13.318;2023-04-07T14:40:33;4.67;;;3.30;;
22184;SDS011;11258;52.516;13.318;2023-04-07T14:42:59;4.83;;;3.20;;
22184;SDS011;11258;52.516;13.318;2023-04-07T14:45:25;6.80;;;3.93;;
22184;SDS011;11258;52.516;13.318;2023-04-07T14:47:50;5.73;;;3.93;;
22184;SDS011;11258;52.516;13.318;2023-04-07T14:50:16;6.40;;;4.07;;
22184;SDS011;11258;52.516;13.318;2023-04-07T14:52:42;6.47;;;4.20;;
22184;SDS011;11258;52.516;13.318;2023-04-07T14:55:08;4.47;;;3.43;;